sensor_id;sensor_type;location;lat;lon;timestamp;P1;durP1;ratioP1;P2;durP2;ratioP2
77581;SDS011;66726;52.388;9.986;2023-04-25T00:02:33;14.40;;;5.33;;
77581;SDS011;66726;52.388;9.986;2023-04-25T00:05:05;12.13;;;5.57;;
77581;SDS011;66726;52.388;9.986;2023-04-25T00:07:38;10.60;;;5.23;;
77581;SDS011;66726;52.388;9.986;2023-04-25T00:10:11;11.70;;;5.87;;
77581;SDS011;66726;52.388;9.986;2023-04-25T00:12:43;12.07;;;5.23;;
77581;SDS011;66726;52.388;9.986;2023-04-25T00:15:15;12.73;;;5.53;;
77581;SDS011;66726;52.388;9.986;2023-04-25T00:17:47;9.90;;;5.70;;
77581;SDS011;66726;52.388;9.986;2023-04-25T00:20:20;13.70;;;5.93;;
77581;SDS011;66726;52.388;9.986;2023-04-25T00:22:52;12.60;;;5.50;;
77581;SDS011;66726;52.388;9.986;2023-04-25T00:25:25;9.37;;;5.37;;
77581;SDS011;66726;52.388;9.986;2023-04-25T00:27:57;13.03;;;6.43;;
77581;SDS011;66726;52.388;9.986;2023-04-25T00:30:28;11.53;;;5.93;;
77581;SDS011;66726;52.388;9.986;2023-04-25T00:33:00;13.70;;;6.13;;
77581;SDS011;66726;52.388;9.986;2023-04-25T00:35:32;12.90;;;5.87;;
77581;SDS011;66726;52.388;9.986;2023-04-25T00:38:05;11.50;;;5.80;;
77581;SDS011;66726;52.388;9.986;2023-04-25T00:40:39;11.23;;;5.97;;
77581;SDS011;66726;52.388;9.986;2023-04-25T00:43:10;10.93;;;5.47;;
77581;SDS011;66726;52.388;9.986;2023-04-25T00:45:43;11.57;;;5.57;;
77581;SDS011;66726;52.388;9.986;2023-04-25T00:48:22;15.63;;;6.00;;
77581;SDS011;66726;52.388;9.986;2023-04-25T00:50:54;15.13;;;5.60;;
77581;SDS011;66726;52.388;9.986;2023-04-25T00:53:28;14.77;;;5.87;;
77581;SDS011;66726;52.388;9.986;2023-04-25T00:56:04;13.07;;;5.40;;
77581;SDS011;66726;52.388;9.986;2023-04-25T00:58:36;14.63;;;5.83;;
77581;SDS011;66726;52.388;9.986;2023-04-25T01:01:09;17.10;;;5.90;;
77581;SDS011;66726;52.388;9.986;2023-04-25T01:03:42;10.93;;;5.17;;
77581;SDS011;66726;52.388;9.986;2023-04-25T01:06:17;11.30;;;5.13;;
77581;SDS011;66726;52.388;9.986;2023-04-25T01:08:49;16.00;;;6.17;;
77581;SDS011;66726;52.388;9.986;2023-04-25T01:11:23;16.50;;;5.83;;
77581;SDS011;66726;52.388;9.986;2023-04-25T01:13:55;13.80;;;5.50;;
77581;SDS011;66726;52.388;9.986;2023-04-25T01:16:28;13.33;;;6.10;;
77581;SDS011;66726;52.388;9.986;2023-04-25T01:19:00;11.57;;;5.13;;
77581;SDS011;66726;52.388;9.986;2023-04-25T01:21:38;8.67;;;5.17;;
77581;SDS011;66726;52.388;9.986;2023-04-25T01:24:10;13.87;;;5.67;;
77581;SDS011;66726;52.388;9.986;2023-04-25T01:26:43;16.00;;;6.20;;
77581;SDS011;66726;52.388;9.986;2023-04-25T01:29:17;15.70;;;6.47;;
77581;SDS011;66726;52.388;9.986;2023-04-25T01:31:50;12.13;;;5.83;;
77581;SDS011;66726;52.388;9.986;2023-04-25T01:34:24;14.80;;;5.90;;
77581;SDS011;66726;52.388;9.986;2023-04-25T01:36:57;16.77;;;7.67;;
77581;SDS011;66726;52.388;9.986;2023-04-25T01:39:30;10.57;;;6.30;;
77581;SDS011;66726;52.388;9.986;2023-04-25T01:42:03;11.17;;;6.10;;
77581;SDS011;66726;52.388;9.986;2023-04-25T01:44:35;16.53;;;6.17;;
77581;SDS011;66726;52.388;9.986;2023-04-25T01:47:07;15.40;;;6.83;;
77581;SDS011;66726;52.388;9.986;2023-04-25T01:49:38;13.70;;;6.73;;
77581;SDS011;66726;52.388;9.986;2023-04-25T01:52:12;13.60;;;7.17;;
77581;SDS011;66726;52.388;9.986;2023-04-25T01:54:44;13.57;;;7.03;;
77581;SDS011;66726;52.388;9.986;2023-04-25T01:57:16;12.30;;;6.57;;
77581;SDS011;66726;52.388;9.986;2023-04-25T01:59:48;12.40;;;6.77;;
77581;SDS011;66726;52.388;9.986;2023-04-25T02:02:22;14.23;;;7.27;;
77581;SDS011;66726;52.388;9.986;2023-04-25T02:04:54;15.70;;;7.00;;
77581;SDS011;66726;52.388;9.986;2023-04-25T02:07:27;15.60;;;7.40;;
77581;SDS011;66726;52.388;9.986;2023-04-25T02:09:59;13.00;;;7.33;;
77581;SDS011;66726;52.388;9.986;2023-04-25T02:12:30;14.30;;;7.03;;
77581;SDS011;66726;52.388;9.986;2023-04-25T02:15:03;11.10;;;7.20;;
77581;SDS011;66726;52.388;9.986;2023-04-25T02:17:37;12.70;;;7.60;;
77581;SDS011;66726;52.388;9.986;2023-04-25T02:20:11;11.87;;;6.63;;
77581;SDS011;66726;52.388;9.986;2023-04-25T02:22:45;16.83;;;7.40;;
77581;SDS011;66726;52.388;9.986;2023-04-25T02:25:17;11.33;;;6.93;;
77581;SDS011;66726;52.388;9.986;2023-04-25T02:27:49;13.77;;;7.10;;
77581;SDS011;66726;52.388;9.986;2023-04-25T02:30:21;12.97;;;6.73;;
77581;SDS011;66726;52.388;9.986;2023-04-25T02:32:53;12.53;;;6.83;;
77581;SDS011;66726;52.388;9.986;2023-04-25T02:35:25;12.30;;;7.57;;
77581;SDS011;66726;52.388;9.986;2023-04-25T02:37:58;15.10;;;7.13;;
77581;SDS011;66726;52.388;9.986;2023-04-25T02:40:30;14.77;;;6.50;;
77581;SDS011;66726;52.388;9.986;2023-04-25T02:43:02;14.37;;;6.90;;
77581;SDS011;66726;52.388;9.986;2023-04-25T02:45:34;13.97;;;6.80;;
77581;SDS011;66726;52.388;9.986;2023-04-25T02:48:06;13.60;;;6.57;;
77581;SDS011;66726;52.388;9.986;2023-04-25T02:50:38;12.17;;;6.57;;
77581;SDS011;66726;52.388;9.986;2023-04-25T02:53:12;10.80;;;5.80;;
77581;SDS011;66726;52.388;9.986;2023-04-25T02:55:43;12.17;;;5.97;;
77581;SDS011;66726;52.388;9.986;2023-04-25T02:58:17;12.77;;;5.33;;
77581;SDS011;66726;52.388;9.986;2023-04-25T03:00:49;14.73;;;5.87;;
77581;SDS011;66726;52.388;9.986;2023-04-25T03:03:21;13.80;;;5.13;;
77581;SDS011;66726;52.388;9.986;2023-04-25T03:05:53;15.87;;;5.20;;
77581;SDS011;66726;52.388;9.986;2023-04-25T03:08:26;16.90;;;5.17;;
77581;SDS011;66726;52.388;9.986;2023-04-25T03:10:58;14.67;;;4.80;;
77581;SDS011;66726;52.388;9.986;2023-04-25T03:13:30;18.87;;;5.30;;
77581;SDS011;66726;52.388;9.986;2023-04-25T03:16:02;11.87;;;4.73;;
77581;SDS011;66726;52.388;9.986;2023-04-25T03:18:36;22.77;;;5.53;;
77581;SDS011;66726;52.388;9.986;2023-04-25T03:21:09;16.10;;;5.03;;
77581;SDS011;66726;52.388;9.986;2023-04-25T03:23:42;17.67;;;4.63;;
77581;SDS011;66726;52.388;9.986;2023-04-25T03:26:14;15.17;;;4.47;;
77581;SDS011;66726;52.388;9.986;2023-04-25T03:28:46;17.23;;;5.50;;
77581;SDS011;66726;52.388;9.986;2023-04-25T03:31:18;18.30;;;4.67;;
77581;SDS011;66726;52.388;9.986;2023-04-25T03:33:50;14.33;;;4.80;;
77581;SDS011;66726;52.388;9.986;2023-04-25T03:36:23;21.03;;;4.97;;
77581;SDS011;66726;52.388;9.986;2023-04-25T03:38:57;18.57;;;5.00;;
77581;SDS011;66726;52.388;9.986;2023-04-25T03:41:31;16.53;;;4.70;;
77581;SDS011;66726;52.388;9.986;2023-04-25T03:44:04;18.17;;;4.93;;
77581;SDS011;66726;52.388;9.986;2023-04-25T03:46:35;19.47;;;5.27;;
77581;SDS011;66726;52.388;9.986;2023-04-25T03:49:07;16.47;;;4.80;;
77581;SDS011;66726;52.388;9.986;2023-04-25T03:51:44;18.17;;;4.57;;
77581;SDS011;66726;52.388;9.986;2023-04-25T03:54:17;22.80;;;5.90;;
77581;SDS011;66726;52.388;9.986;2023-04-25T03:56:49;16.13;;;5.43;;
77581;SDS011;66726;52.388;9.986;2023-04-25T03:59:21;20.00;;;5.27;;
77581;SDS011;66726;52.388;9.986;2023-04-25T04:01:53;19.33;;;5.17;;
77581;SDS011;66726;52.388;9.986;2023-04-25T04:04:25;17.60;;;5.07;;
77581;SDS011;66726;52.388;9.986;2023-04-25T04:06:57;23.50;;;5.63;;
77581;SDS011;66726;52.388;9.986;2023-04-25T04:09:30;17.77;;;5.20;;
77581;SDS011;66726;52.388;9.986;2023-04-25T04:12:02;22.10;;;5.33;;
77581;SDS011;66726;52.388;9.986;2023-04-25T04:14:35;19.53;;;6.03;;
77581;SDS011;66726;52.388;9.986;2023-04-25T04:17:07;18.07;;;4.97;;
77581;SDS011;66726;52.388;9.986;2023-04-25T04:19:38;19.00;;;5.20;;
77581;SDS011;66726;52.388;9.986;2023-04-25T04:22:11;19.37;;;5.20;;
77581;SDS011;66726;52.388;9.986;2023-04-25T04:24:44;14.40;;;4.60;;
77581;SDS011;66726;52.388;9.986;2023-04-25T04:27:16;15.17;;;4.47;;
77581;SDS011;66726;52.388;9.986;2023-04-25T04:29:49;18.43;;;5.10;;
77581;SDS011;66726;52.388;9.986;2023-04-25T04:32:22;22.80;;;5.43;;
77581;SDS011;66726;52.388;9.986;2023-04-25T04:34:54;19.60;;;5.07;;
77581;SDS011;66726;52.388;9.986;2023-04-25T04:37:25;16.97;;;4.93;;
77581;SDS011;66726;52.388;9.986;2023-04-25T04:39:58;19.40;;;6.03;;
77581;SDS011;66726;52.388;9.986;2023-04-25T04:42:31;15.83;;;4.77;;
77581;SDS011;66726;52.388;9.986;2023-04-25T04:45:03;14.97;;;4.83;;
77581;SDS011;66726;52.388;9.986;2023-04-25T04:47:37;21.53;;;5.53;;
77581;SDS011;66726;52.388;9.986;2023-04-25T04:50:09;15.93;;;4.80;;
77581;SDS011;66726;52.388;9.986;2023-04-25T04:52:42;18.43;;;5.20;;
77581;SDS011;66726;52.388;9.986;2023-04-25T04:55:15;21.23;;;5.07;;
77581;SDS011;66726;52.388;9.986;2023-04-25T04:57:47;21.43;;;4.87;;
77581;SDS011;66726;52.388;9.986;2023-04-25T05:00:19;21.50;;;5.27;;
77581;SDS011;66726;52.388;9.986;2023-04-25T05:02:54;25.43;;;5.17;;
77581;SDS011;66726;52.388;9.986;2023-04-25T05:05:27;18.90;;;4.97;;
77581;SDS011;66726;52.388;9.986;2023-04-25T05:07:59;15.60;;;4.10;;
77581;SDS011;66726;52.388;9.986;2023-04-25T05:10:32;17.57;;;4.77;;
77581;SDS011;66726;52.388;9.986;2023-04-25T05:13:04;20.93;;;4.80;;
77581;SDS011;66726;52.388;9.986;2023-04-25T05:15:36;21.00;;;5.03;;
77581;SDS011;66726;52.388;9.986;2023-04-25T05:18:08;22.90;;;6.17;;
77581;SDS011;66726;52.388;9.986;2023-04-25T05:20:40;26.20;;;5.60;;
77581;SDS011;66726;52.388;9.986;2023-04-25T05:23:12;23.87;;;5.80;;
77581;SDS011;66726;52.388;9.986;2023-04-25T05:25:45;22.53;;;5.13;;
77581;SDS011;66726;52.388;9.986;2023-04-25T05:28:17;24.87;;;5.53;;
77581;SDS011;66726;52.388;9.986;2023-04-25T05:30:49;19.57;;;4.87;;
77581;SDS011;66726;52.388;9.986;2023-04-25T05:33:21;21.93;;;5.30;;
77581;SDS011;66726;52.388;9.986;2023-04-25T05:35:52;26.67;;;5.03;;
77581;SDS011;66726;52.388;9.986;2023-04-25T05:38:24;23.57;;;6.33;;
77581;SDS011;66726;52.388;9.986;2023-04-25T05:41:01;19.60;;;4.87;;
77581;SDS011;66726;52.388;9.986;2023-04-25T05:43:34;20.80;;;5.23;;
77581;SDS011;66726;52.388;9.986;2023-04-25T05:46:11;19.57;;;5.17;;
77581;SDS011;66726;52.388;9.986;2023-04-25T05:48:43;17.67;;;5.17;;
77581;SDS011;66726;52.388;9.986;2023-04-25T05:51:15;20.87;;;5.00;;
77581;SDS011;66726;52.388;9.986;2023-04-25T05:53:47;19.50;;;4.57;;
77581;SDS011;66726;52.388;9.986;2023-04-25T05:56:20;14.20;;;4.57;;
77581;SDS011;66726;52.388;9.986;2023-04-25T05:58:52;20.47;;;5.23;;
77581;SDS011;66726;52.388;9.986;2023-04-25T06:01:24;23.43;;;4.47;;
77581;SDS011;66726;52.388;9.986;2023-04-25T06:03:54;16.97;;;4.50;;
77581;SDS011;66726;52.388;9.986;2023-04-25T06:06:26;20.30;;;4.90;;
77581;SDS011;66726;52.388;9.986;2023-04-25T06:08:58;14.83;;;4.80;;
77581;SDS011;66726;52.388;9.986;2023-04-25T06:11:31;20.57;;;4.50;;
77581;SDS011;66726;52.388;9.986;2023-04-25T06:14:03;16.93;;;4.57;;
77581;SDS011;66726;52.388;9.986;2023-04-25T06:16:35;21.53;;;4.50;;
77581;SDS011;66726;52.388;9.986;2023-04-25T06:19:07;21.23;;;4.50;;
77581;SDS011;66726;52.388;9.986;2023-04-25T06:21:39;17.13;;;5.17;;
77581;SDS011;66726;52.388;9.986;2023-04-25T06:24:12;16.90;;;4.33;;
77581;SDS011;66726;52.388;9.986;2023-04-25T06:26:45;22.00;;;4.60;;
77581;SDS011;66726;52.388;9.986;2023-04-25T06:29:17;14.17;;;3.97;;
77581;SDS011;66726;52.388;9.986;2023-04-25T06:31:50;15.23;;;3.37;;
77581;SDS011;66726;52.388;9.986;2023-04-25T06:34:23;14.10;;;4.07;;
77581;SDS011;66726;52.388;9.986;2023-04-25T06:36:55;18.43;;;4.23;;
77581;SDS011;66726;52.388;9.986;2023-04-25T06:39:27;22.77;;;4.60;;
77581;SDS011;66726;52.388;9.986;2023-04-25T06:42:00;21.87;;;4.43;;
77581;SDS011;66726;52.388;9.986;2023-04-25T06:44:32;15.87;;;3.57;;
77581;SDS011;66726;52.388;9.986;2023-04-25T06:47:04;13.73;;;4.20;;
77581;SDS011;66726;52.388;9.986;2023-04-25T06:49:36;15.93;;;3.60;;
77581;SDS011;66726;52.388;9.986;2023-04-25T06:52:07;19.17;;;4.17;;
77581;SDS011;66726;52.388;9.986;2023-04-25T06:54:39;14.57;;;3.90;;
77581;SDS011;66726;52.388;9.986;2023-04-25T06:57:13;14.10;;;4.07;;
77581;SDS011;66726;52.388;9.986;2023-04-25T06:59:44;23.23;;;3.87;;
77581;SDS011;66726;52.388;9.986;2023-04-25T07:02:16;15.30;;;4.30;;
77581;SDS011;66726;52.388;9.986;2023-04-25T07:04:49;18.00;;;4.50;;
77581;SDS011;66726;52.388;9.986;2023-04-25T07:07:22;14.37;;;3.93;;
77581;SDS011;66726;52.388;9.986;2023-04-25T07:09:54;16.93;;;4.07;;
77581;SDS011;66726;52.388;9.986;2023-04-25T07:12:28;17.90;;;3.63;;
77581;SDS011;66726;52.388;9.986;2023-04-25T07:15:00;13.77;;;4.13;;
77581;SDS011;66726;52.388;9.986;2023-04-25T07:17:34;15.33;;;4.10;;
77581;SDS011;66726;52.388;9.986;2023-04-25T07:20:06;17.97;;;4.20;;
77581;SDS011;66726;52.388;9.986;2023-04-25T07:22:37;16.87;;;4.70;;
77581;SDS011;66726;52.388;9.986;2023-04-25T07:25:10;19.60;;;3.77;;
77581;SDS011;66726;52.388;9.986;2023-04-25T07:27:43;11.70;;;3.27;;
77581;SDS011;66726;52.388;9.986;2023-04-25T07:30:15;19.30;;;3.33;;
77581;SDS011;66726;52.388;9.986;2023-04-25T07:32:47;12.37;;;3.13;;
77581;SDS011;66726;52.388;9.986;2023-04-25T07:35:19;13.83;;;3.80;;
77581;SDS011;66726;52.388;9.986;2023-04-25T07:37:51;19.00;;;4.37;;
77581;SDS011;66726;52.388;9.986;2023-04-25T07:40:22;12.53;;;3.43;;
77581;SDS011;66726;52.388;9.986;2023-04-25T07:42:56;15.70;;;3.60;;
77581;SDS011;66726;52.388;9.986;2023-04-25T07:45:28;14.47;;;3.67;;
77581;SDS011;66726;52.388;9.986;2023-04-25T07:48:00;11.20;;;3.83;;
77581;SDS011;66726;52.388;9.986;2023-04-25T07:50:32;13.50;;;3.40;;
77581;SDS011;66726;52.388;9.986;2023-04-25T07:53:04;14.20;;;3.70;;
77581;SDS011;66726;52.388;9.986;2023-04-25T07:55:36;12.83;;;4.53;;
77581;SDS011;66726;52.388;9.986;2023-04-25T07:58:09;13.80;;;3.70;;
77581;SDS011;66726;52.388;9.986;2023-04-25T08:00:41;14.57;;;3.83;;
77581;SDS011;66726;52.388;9.986;2023-04-25T08:03:13;17.47;;;4.20;;
77581;SDS011;66726;52.388;9.986;2023-04-25T08:05:46;10.50;;;3.13;;
77581;SDS011;66726;52.388;9.986;2023-04-25T08:08:18;17.07;;;4.07;;
77581;SDS011;66726;52.388;9.986;2023-04-25T08:10:52;22.20;;;4.07;;
77581;SDS011;66726;52.388;9.986;2023-04-25T08:13:26;16.00;;;3.40;;
77581;SDS011;66726;52.388;9.986;2023-04-25T08:15:58;14.00;;;3.30;;
77581;SDS011;66726;52.388;9.986;2023-04-25T08:18:30;10.20;;;3.10;;
77581;SDS011;66726;52.388;9.986;2023-04-25T08:21:04;13.20;;;3.47;;
77581;SDS011;66726;52.388;9.986;2023-04-25T08:23:37;12.80;;;3.63;;
77581;SDS011;66726;52.388;9.986;2023-04-25T08:26:09;10.07;;;3.17;;
77581;SDS011;66726;52.388;9.986;2023-04-25T08:28:42;11.60;;;3.27;;
77581;SDS011;66726;52.388;9.986;2023-04-25T08:31:16;9.30;;;2.60;;
77581;SDS011;66726;52.388;9.986;2023-04-25T08:33:48;9.17;;;3.00;;
77581;SDS011;66726;52.388;9.986;2023-04-25T08:36:20;14.20;;;3.27;;
77581;SDS011;66726;52.388;9.986;2023-04-25T08:39:06;8.27;;;2.73;;
77581;SDS011;66726;52.388;9.986;2023-04-25T08:41:42;10.57;;;3.23;;
77581;SDS011;66726;52.388;9.986;2023-04-25T08:44:16;12.83;;;3.10;;
77581;SDS011;66726;52.388;9.986;2023-04-25T08:46:50;8.57;;;2.83;;
77581;SDS011;66726;52.388;9.986;2023-04-25T08:49:25;9.33;;;3.47;;
77581;SDS011;66726;52.388;9.986;2023-04-25T08:52:00;11.13;;;3.03;;
77581;SDS011;66726;52.388;9.986;2023-04-25T08:54:34;14.47;;;3.57;;
77581;SDS011;66726;52.388;9.986;2023-04-25T08:57:11;7.53;;;2.70;;
77581;SDS011;66726;52.388;9.986;2023-04-25T08:59:46;10.20;;;2.93;;
77581;SDS011;66726;52.388;9.986;2023-04-25T09:02:19;12.33;;;3.57;;
77581;SDS011;66726;52.388;9.986;2023-04-25T09:04:52;9.10;;;2.93;;
77581;SDS011;66726;52.388;9.986;2023-04-25T09:07:27;9.50;;;2.70;;
77581;SDS011;66726;52.388;9.986;2023-04-25T09:09:58;16.00;;;3.23;;
77581;SDS011;66726;52.388;9.986;2023-04-25T09:12:31;9.30;;;2.67;;
77581;SDS011;66726;52.388;9.986;2023-04-25T09:15:06;13.30;;;3.30;;
77581;SDS011;66726;52.388;9.986;2023-04-25T09:17:47;14.33;;;3.50;;
77581;SDS011;66726;52.388;9.986;2023-04-25T09:20:28;7.47;;;3.17;;
77581;SDS011;66726;52.388;9.986;2023-04-25T09:23:25;9.20;;;2.50;;
77581;SDS011;66726;52.388;9.986;2023-04-25T09:26:00;12.10;;;2.87;;
77581;SDS011;66726;52.388;9.986;2023-04-25T09:28:34;11.90;;;3.27;;
77581;SDS011;66726;52.388;9.986;2023-04-25T09:31:07;7.97;;;2.80;;
77581;SDS011;66726;52.388;9.986;2023-04-25T09:33:48;7.57;;;2.50;;
77581;SDS011;66726;52.388;9.986;2023-04-25T09:36:29;8.17;;;2.37;;
77581;SDS011;66726;52.388;9.986;2023-04-25T09:39:03;10.23;;;2.80;;
77581;SDS011;66726;52.388;9.986;2023-04-25T09:41:45;8.63;;;2.77;;
77581;SDS011;66726;52.388;9.986;2023-04-25T09:44:23;7.60;;;2.60;;
77581;SDS011;66726;52.388;9.986;2023-04-25T09:46:56;6.83;;;2.50;;
77581;SDS011;66726;52.388;9.986;2023-04-25T09:49:29;8.03;;;2.40;;
77581;SDS011;66726;52.388;9.986;2023-04-25T09:52:00;9.07;;;2.50;;
77581;SDS011;66726;52.388;9.986;2023-04-25T09:54:32;8.27;;;2.10;;
77581;SDS011;66726;52.388;9.986;2023-04-25T09:57:07;5.37;;;1.97;;
77581;SDS011;66726;52.388;9.986;2023-04-25T09:59:43;5.50;;;2.00;;
77581;SDS011;66726;52.388;9.986;2023-04-25T10:02:21;8.60;;;2.57;;
77581;SDS011;66726;52.388;9.986;2023-04-25T10:04:55;6.90;;;1.93;;
77581;SDS011;66726;52.388;9.986;2023-04-25T10:07:30;6.03;;;2.30;;
77581;SDS011;66726;52.388;9.986;2023-04-25T10:10:04;5.83;;;2.20;;
77581;SDS011;66726;52.388;9.986;2023-04-25T10:12:41;9.23;;;2.40;;
77581;SDS011;66726;52.388;9.986;2023-04-25T10:15:14;5.60;;;2.07;;
77581;SDS011;66726;52.388;9.986;2023-04-25T10:17:48;7.60;;;2.10;;
77581;SDS011;66726;52.388;9.986;2023-04-25T10:20:21;8.13;;;1.90;;
77581;SDS011;66726;52.388;9.986;2023-04-25T10:22:54;7.03;;;2.57;;
77581;SDS011;66726;52.388;9.986;2023-04-25T10:25:31;6.00;;;2.10;;
77581;SDS011;66726;52.388;9.986;2023-04-25T10:28:04;6.90;;;2.17;;
77581;SDS011;66726;52.388;9.986;2023-04-25T10:30:36;6.10;;;2.07;;
77581;SDS011;66726;52.388;9.986;2023-04-25T10:33:35;7.33;;;2.00;;
77581;SDS011;66726;52.388;9.986;2023-04-25T10:36:11;6.70;;;2.20;;
77581;SDS011;66726;52.388;9.986;2023-04-25T10:38:45;4.70;;;2.03;;
77581;SDS011;66726;52.388;9.986;2023-04-25T10:41:20;7.83;;;2.50;;
77581;SDS011;66726;52.388;9.986;2023-04-25T10:43:59;10.43;;;2.30;;
77581;SDS011;66726;52.388;9.986;2023-04-25T10:46:33;6.13;;;2.50;;
77581;SDS011;66726;52.388;9.986;2023-04-25T10:49:07;8.93;;;2.63;;
77581;SDS011;66726;52.388;9.986;2023-04-25T10:52:10;11.80;;;2.57;;
77581;SDS011;66726;52.388;9.986;2023-04-25T10:54:52;9.10;;;2.53;;
77581;SDS011;66726;52.388;9.986;2023-04-25T10:57:31;8.03;;;2.40;;
77581;SDS011;66726;52.388;9.986;2023-04-25T11:00:11;5.67;;;2.40;;
77581;SDS011;66726;52.388;9.986;2023-04-25T11:02:53;7.37;;;2.37;;
77581;SDS011;66726;52.388;9.986;2023-04-25T11:05:31;8.17;;;2.33;;
77581;SDS011;66726;52.388;9.986;2023-04-25T11:08:24;8.50;;;2.47;;
77581;SDS011;66726;52.388;9.986;2023-04-25T11:11:14;9.00;;;2.33;;
77581;SDS011;66726;52.388;9.986;2023-04-25T11:13:48;7.20;;;2.37;;
77581;SDS011;66726;52.388;9.986;2023-04-25T11:16:19;8.10;;;2.27;;
77581;SDS011;66726;52.388;9.986;2023-04-25T11:18:57;6.17;;;2.10;;
77581;SDS011;66726;52.388;9.986;2023-04-25T11:21:30;6.17;;;2.10;;
77581;SDS011;66726;52.388;9.986;2023-04-25T11:24:02;5.40;;;2.30;;
77581;SDS011;66726;52.388;9.986;2023-04-25T11:26:34;8.23;;;2.33;;
77581;SDS011;66726;52.388;9.986;2023-04-25T11:29:10;7.50;;;2.00;;
77581;SDS011;66726;52.388;9.986;2023-04-25T11:31:44;5.93;;;1.93;;
77581;SDS011;66726;52.388;9.986;2023-04-25T11:34:16;3.67;;;1.90;;
77581;SDS011;66726;52.388;9.986;2023-04-25T11:36:50;5.93;;;1.87;;
77581;SDS011;66726;52.388;9.986;2023-04-25T11:39:23;7.60;;;1.90;;
77581;SDS011;66726;52.388;9.986;2023-04-25T11:41:56;5.70;;;1.87;;
77581;SDS011;66726;52.388;9.986;2023-04-25T11:44:31;4.63;;;1.60;;
77581;SDS011;66726;52.388;9.986;2023-04-25T11:47:04;5.13;;;1.70;;
77581;SDS011;66726;52.388;9.986;2023-04-25T11:49:36;7.20;;;1.90;;
77581;SDS011;66726;52.388;9.986;2023-04-25T11:52:09;8.00;;;2.20;;
77581;SDS011;66726;52.388;9.986;2023-04-25T11:54:41;5.93;;;2.07;;
77581;SDS011;66726;52.388;9.986;2023-04-25T11:57:18;6.77;;;1.80;;
77581;SDS011;66726;52.388;9.986;2023-04-25T11:59:50;4.00;;;1.67;;
77581;SDS011;66726;52.388;9.986;2023-04-25T12:02:25;8.13;;;1.97;;
77581;SDS011;66726;52.388;9.986;2023-04-25T12:04:58;5.20;;;2.00;;
77581;SDS011;66726;52.388;9.986;2023-04-25T12:07:55;5.30;;;1.80;;
77581;SDS011;66726;52.388;9.986;2023-04-25T12:10:36;5.53;;;1.43;;
77581;SDS011;66726;52.388;9.986;2023-04-25T12:13:20;3.60;;;1.20;;
77581;SDS011;66726;52.388;9.986;2023-04-25T12:15:54;5.63;;;1.90;;
77581;SDS011;66726;52.388;9.986;2023-04-25T12:18:27;4.43;;;1.73;;
77581;SDS011;66726;52.388;9.986;2023-04-25T12:21:04;6.17;;;2.13;;
77581;SDS011;66726;52.388;9.986;2023-04-25T12:23:39;4.87;;;2.20;;
77581;SDS011;66726;52.388;9.986;2023-04-25T12:26:10;8.87;;;2.07;;
77581;SDS011;66726;52.388;9.986;2023-04-25T12:28:44;5.27;;;2.00;;
77581;SDS011;66726;52.388;9.986;2023-04-25T12:31:17;7.17;;;2.33;;
77581;SDS011;66726;52.388;9.986;2023-04-25T12:33:49;6.50;;;1.90;;
77581;SDS011;66726;52.388;9.986;2023-04-25T12:36:21;4.40;;;1.93;;
77581;SDS011;66726;52.388;9.986;2023-04-25T12:38:55;4.53;;;1.90;;
77581;SDS011;66726;52.388;9.986;2023-04-25T12:41:30;4.07;;;1.80;;
77581;SDS011;66726;52.388;9.986;2023-04-25T12:44:02;3.77;;;1.67;;
77581;SDS011;66726;52.388;9.986;2023-04-25T12:46:34;3.47;;;1.30;;
77581;SDS011;66726;52.388;9.986;2023-04-25T12:49:08;9.30;;;2.17;;
77581;SDS011;66726;52.388;9.986;2023-04-25T12:51:44;8.80;;;2.00;;
77581;SDS011;66726;52.388;9.986;2023-04-25T12:54:19;8.33;;;1.83;;
77581;SDS011;66726;52.388;9.986;2023-04-25T12:56:51;11.43;;;2.10;;
77581;SDS011;66726;52.388;9.986;2023-04-25T12:59:24;4.70;;;1.93;;
77581;SDS011;66726;52.388;9.986;2023-04-25T13:01:56;7.43;;;1.70;;
77581;SDS011;66726;52.388;9.986;2023-04-25T13:04:29;4.53;;;1.93;;
77581;SDS011;66726;52.388;9.986;2023-04-25T13:07:00;3.67;;;1.50;;
77581;SDS011;66726;52.388;9.986;2023-04-25T13:09:34;3.93;;;1.10;;
77581;SDS011;66726;52.388;9.986;2023-04-25T13:12:05;2.13;;;1.33;;
77581;SDS011;66726;52.388;9.986;2023-04-25T13:14:37;2.57;;;1.30;;
77581;SDS011;66726;52.388;9.986;2023-04-25T13:17:09;2.93;;;1.20;;
77581;SDS011;66726;52.388;9.986;2023-04-25T13:19:41;3.30;;;1.20;;
77581;SDS011;66726;52.388;9.986;2023-04-25T13:22:13;2.03;;;1.20;;
77581;SDS011;66726;52.388;9.986;2023-04-25T13:24:47;2.73;;;1.17;;
77581;SDS011;66726;52.388;9.986;2023-04-25T13:27:19;3.60;;;1.33;;
77581;SDS011;66726;52.388;9.986;2023-04-25T13:29:51;6.00;;;1.60;;
77581;SDS011;66726;52.388;9.986;2023-04-25T13:32:23;5.10;;;1.60;;
77581;SDS011;66726;52.388;9.986;2023-04-25T13:34:55;4.27;;;1.57;;
77581;SDS011;66726;52.388;9.986;2023-04-25T13:37:31;8.50;;;1.80;;
77581;SDS011;66726;52.388;9.986;2023-04-25T13:40:05;7.83;;;1.90;;
77581;SDS011;66726;52.388;9.986;2023-04-25T13:42:38;9.47;;;1.90;;
77581;SDS011;66726;52.388;9.986;2023-04-25T13:45:11;8.93;;;2.10;;
77581;SDS011;66726;52.388;9.986;2023-04-25T13:47:43;6.97;;;1.83;;
77581;SDS011;66726;52.388;9.986;2023-04-25T13:50:16;5.07;;;1.90;;
77581;SDS011;66726;52.388;9.986;2023-04-25T13:52:48;8.50;;;2.13;;
77581;SDS011;66726;52.388;9.986;2023-04-25T13:55:21;9.67;;;2.30;;
77581;SDS011;66726;52.388;9.986;2023-04-25T13:57:53;5.43;;;2.10;;
77581;SDS011;66726;52.388;9.986;2023-04-25T14:00:25;5.10;;;2.00;;
77581;SDS011;66726;52.388;9.986;2023-04-25T14:02:57;4.67;;;1.87;;
77581;SDS011;66726;52.388;9.986;2023-04-25T14:05:33;6.87;;;2.00;;
77581;SDS011;66726;52.388;9.986;2023-04-25T14:08:07;4.20;;;2.07;;
77581;SDS011;66726;52.388;9.986;2023-04-25T14:10:41;7.73;;;2.00;;
77581;SDS011;66726;52.388;9.986;2023-04-25T14:13:12;4.93;;;1.80;;
77581;SDS011;66726;52.388;9.986;2023-04-25T14:15:44;3.53;;;1.93;;
77581;SDS011;66726;52.388;9.986;2023-04-25T14:18:17;22.10;;;2.53;;
77581;SDS011;66726;52.388;9.986;2023-04-25T14:20:49;6.40;;;1.77;;
77581;SDS011;66726;52.388;9.986;2023-04-25T14:23:21;6.57;;;1.90;;
77581;SDS011;66726;52.388;9.986;2023-04-25T14:25:54;4.77;;;1.80;;
77581;SDS011;66726;52.388;9.986;2023-04-25T14:28:26;3.63;;;1.70;;
77581;SDS011;66726;52.388;9.986;2023-04-25T14:30:58;4.97;;;1.60;;
77581;SDS011;66726;52.388;9.986;2023-04-25T14:33:30;4.20;;;1.70;;
77581;SDS011;66726;52.388;9.986;2023-04-25T14:36:03;2.90;;;1.50;;
77581;SDS011;66726;52.388;9.986;2023-04-25T14:38:35;3.10;;;1.50;;
77581;SDS011;66726;52.388;9.986;2023-04-25T14:41:08;5.53;;;1.80;;
77581;SDS011;66726;52.388;9.986;2023-04-25T14:43:40;3.60;;;1.60;;
77581;SDS011;66726;52.388;9.986;2023-04-25T14:46:12;4.90;;;1.50;;
77581;SDS011;66726;52.388;9.986;2023-04-25T14:48:45;6.00;;;1.80;;
77581;SDS011;66726;52.388;9.986;2023-04-25T14:51:19;4.03;;;1.90;;
77581;SDS011;66726;52.388;9.986;2023-04-25T14:53:52;4.60;;;1.93;;
77581;SDS011;66726;52.388;9.986;2023-04-25T14:56:25;3.70;;;1.63;;
77581;SDS011;66726;52.388;9.986;2023-04-25T14:58:57;3.90;;;1.47;;
77581;SDS011;66726;52.388;9.986;2023-04-25T15:01:29;4.97;;;1.80;;
77581;SDS011;66726;52.388;9.986;2023-04-25T15:04:03;6.63;;;1.87;;
77581;SDS011;66726;52.388;9.986;2023-04-25T15:06:37;3.97;;;1.63;;
77581;SDS011;66726;52.388;9.986;2023-04-25T15:09:10;2.63;;;1.57;;
77581;SDS011;66726;52.388;9.986;2023-04-25T15:11:45;2.17;;;1.60;;
77581;SDS011;66726;52.388;9.986;2023-04-25T15:14:18;4.00;;;1.47;;
77581;SDS011;66726;52.388;9.986;2023-04-25T15:16:49;4.77;;;1.73;;
77581;SDS011;66726;52.388;9.986;2023-04-25T15:19:21;3.23;;;1.47;;